Time;durP1;ratioP1;P1;durP2;ratioP2;P2;SDS_P1;SDS_P2;PMS_P1;PMS_P2;Temp;Humidity;BMP_temperature;BMP_pressure;BME280_temperature;BME280_humidity;BME280_pressure;Samples;Min_cycle;Max_cycle;Signal;HPM_P1;HPM_P2
2021/12/15 00:02:20;;;;;;;163.57;82.00;;;;;;;1.32;73.26;95232.55;1677114;83;21082;-60
2021/12/15 00:04:50;;;;;;;194.52;92.92;;;;;;;1.37;73.16;95230.88;1649507;84;21128;-56
2021/12/15 00:07:24;;;;;;;187.55;93.00;;;;;;;1.44;73.26;95228.77;1687143;84;21008;-58
2021/12/15 00:09:55;;;;;;;;;;;;;;;1.48;73.21;95230.94;1717994;83;21172;-55
2021/12/15 00:12:22;;;;;;;176.32;88.40;;;;;;;1.45;73.21;95228.95;1685857;83;21170;-59
2021/12/15 00:14:53;;;;;;;179.40;91.85;;;;;;;1.42;73.42;95216.17;1698381;83;21004;-57
2021/12/15 00:17:24;;;;;;;166.68;86.05;;;;;;;1.33;73.54;95224.63;1674629;83;21064;-56
2021/12/15 00:19:53;;;;;;;180.75;97.70;;;;;;;1.35;74.15;95218.84;1685616;83;21445;-56
2021/12/15 00:22:21;;;;;;;166.35;87.37;;;;;;;1.35;74.14;95223.66;1693393;83;21416;-58
2021/12/15 00:24:49;;;;;;;112.30;58.87;;;;;;;1.32;74.16;95231.20;1678441;83;21175;-56
2021/12/15 00:27:17;;;;;;;84.62;46.58;;;;;;;1.31;74.41;95228.88;1692942;83;21466;-56
2021/12/15 00:29:44;;;;;;;70.30;43.33;;;;;;;1.40;74.69;95232.82;1689565;83;20988;-56
2021/12/15 00:32:12;;;;;;;67.97;40.45;;;;;;;1.52;74.35;95229.78;1680622;83;21087;-57
2021/12/15 00:34:41;;;;;;;77.12;45.17;;;;;;;1.60;73.92;95230.61;1704229;83;21047;-63
2021/12/15 00:37:08;;;;;;;71.87;43.25;;;;;;;1.61;73.80;95223.47;1696673;83;21138;-56
2021/12/15 00:39:36;;;;;;;79.00;45.25;;;;;;;1.72;73.85;95225.64;1706034;83;21047;-56
2021/12/15 00:42:04;;;;;;;68.20;40.30;;;;;;;1.78;73.54;95229.57;1670212;83;21067;-56
2021/12/15 00:44:31;;;;;;;56.73;35.13;;;;;;;1.76;73.23;95227.82;1685776;83;21065;-58
2021/12/15 00:47:00;;;;;;;56.37;36.03;;;;;;;1.72;73.14;95238.44;1685226;83;21022;-57
2021/12/15 00:49:28;;;;;;;63.30;38.88;;;;;;;1.63;73.12;95235.27;1683752;83;21160;-58
2021/12/15 00:52:00;;;;;;;58.50;35.50;;;;;;;1.62;73.59;95233.16;1697926;83;21034;-56
2021/12/15 00:54:28;;;;;;;59.50;35.98;;;;;;;1.66;73.33;95231.23;1694883;84;21102;-57
2021/12/15 00:56:55;;;;;;;62.83;39.35;;;;;;;1.67;73.24;95232.79;1698634;83;21060;-57
2021/12/15 00:59:26;;;;;;;69.95;41.37;;;;;;;1.64;73.20;95243.05;1703342;83;21079;-57
2021/12/15 01:01:54;;;;;;;70.80;42.78;;;;;;;1.60;73.48;95238.19;1691206;83;21159;-58
2021/12/15 01:04:21;;;;;;;95.42;49.35;;;;;;;1.58;73.52;95240.50;1676636;84;21495;-58
2021/12/15 01:06:52;;;;;;;93.92;50.80;;;;;;;1.60;73.72;95239.54;1703178;83;20991;-56
2021/12/15 01:09:39;;;;;;;94.97;53.40;;;;;;;1.61;73.71;95239.73;1686918;83;21584;-56
2021/12/15 01:14:31;;;;;;;98.42;54.58;;;;;;;1.63;73.77;95244.20;1687955;83;21382;-57
2021/12/15 01:20:20;;;;;;;128.12;67.70;;;;;;;1.60;73.62;95250.95;1695951;83;21026;-57
2021/12/15 01:22:50;;;;;;;161.43;82.35;;;;;;;1.51;73.53;95251.27;1692576;83;21629;-58
2021/12/15 01:25:26;;;;;;;146.80;76.75;;;;;;;1.43;73.76;95244.27;1682250;83;21056;-55
2021/12/15 01:27:55;;;;;;;144.43;76.65;;;;;;;1.40;74.01;95240.95;1689519;83;21122;-56
2021/12/15 01:30:27;;;;;;;139.90;75.83;;;;;;;1.28;73.85;95239.89;1679961;83;21016;-56
2021/12/15 01:32:57;;;;;;;136.00;71.53;;;;;;;1.11;74.23;95233.75;1690753;83;21033;-61
2021/12/15 01:35:24;;;;;;;143.32;78.22;;;;;;;1.07;74.73;95237.58;1671941;83;21140;-57
2021/12/15 01:37:52;;;;;;;141.18;74.00;;;;;;;1.04;75.01;95243.19;1688225;85;21113;-57
2021/12/15 01:40:33;;;;;;;135.32;73.47;;;;;;;1.12;75.31;95227.77;1689845;83;21792;-56
2021/12/15 01:42:55;;;;;;;133.55;73.62;;;;;;;1.23;75.71;95229.41;1688576;84;21475;-58
2021/12/15 01:48:11;;;;;;;131.47;69.47;;;;;;;1.47;74.87;95218.55;1692035;83;21002;-57
2021/12/15 01:50:38;;;;;;;124.72;65.95;;;;;;;1.55;75.28;95224.98;1677602;83;21031;-57
2021/12/15 01:53:06;;;;;;;102.27;56.65;;;;;;;1.60;74.78;95218.41;1672471;84;21167;-57
2021/12/15 01:55:37;;;;;;;95.45;53.78;;;;;;;1.65;75.10;95232.98;1669293;84;21010;-55
2021/12/15 01:58:07;;;;;;;98.55;53.10;;;;;;;1.75;74.89;95219.48;1668418;85;21105;-57
2021/12/15 02:00:39;;;;;;;89.62;51.10;;;;;;;1.88;74.75;95222.05;1666535;84;21026;-58
2021/12/15 02:03:06;;;;;;;96.10;53.73;;;;;;;2.02;74.35;95226.20;1666301;84;20954;-57
2021/12/15 02:05:34;;;;;;;90.47;51.55;;;;;;;2.13;73.92;95229.75;1672994;83;21115;-58
2021/12/15 02:08:02;;;;;;;91.17;52.45;;;;;;;2.24;73.53;95231.91;1690226;83;21165;-57
2021/12/15 02:10:33;;;;;;;94.58;52.95;;;;;;;2.31;73.14;95229.23;1663220;84;21335;-57
2021/12/15 02:13:01;;;;;;;78.83;43.10;;;;;;;2.35;72.85;95225.35;1699732;83;21008;-57
2021/12/15 02:15:33;;;;;;;72.80;41.90;;;;;;;2.33;72.12;95224.96;1673833;83;21244;-57
2021/12/15 02:18:02;;;;;;;74.07;42.30;;;;;;;2.22;72.16;95227.44;1692569;83;21161;-59
2021/12/15 02:20:37;;;;;;;71.00;39.98;;;;;;;2.16;72.40;95227.03;1685592;83;21023;-56
2021/12/15 02:23:06;;;;;;;66.87;40.85;;;;;;;2.12;72.53;95225.48;1651517;84;21048;-57
2021/12/15 02:25:35;;;;;;;63.20;38.20;;;;;;;2.07;72.50;95232.61;1691251;83;21580;-56
2021/12/15 02:28:03;;;;;;;68.65;37.88;;;;;;;2.11;72.73;95233.42;1692012;83;21461;-56
2021/12/15 02:38:42;;;;;;;95.03;50.83;;;;;;;2.12;72.06;95249.91;1690822;83;21768;-56
2021/12/15 02:41:19;;;;;;;103.10;55.03;;;;;;;2.12;72.01;95247.19;1708792;83;21616;-56
2021/12/15 02:43:41;;;;;;;105.00;54.75;;;;;;;2.12;71.99;95241.77;1690346;83;21168;-58
2021/12/15 02:46:08;;;;;;;98.47;54.03;;;;;;;2.11;71.58;95242.92;1703273;83;21221;-56
2021/12/15 02:48:35;;;;;;;89.42;51.53;;;;;;;2.08;71.59;95239.59;1692312;83;21126;-57
2021/12/15 02:51:04;;;;;;;85.45;45.38;;;;;;;2.07;71.58;95245.61;1686401;83;21092;-57
2021/12/15 02:53:35;;;;;;;75.52;42.40;;;;;;;2.10;72.01;95240.02;1702138;83;20971;-56
2021/12/15 02:56:03;;;;;;;79.25;42.00;;;;;;;2.19;72.04;95239.86;1698240;83;21148;-56
2021/12/15 02:58:35;;;;;;;82.20;44.40;;;;;;;2.27;71.84;95232.50;1693812;83;21042;-57
2021/12/15 03:01:07;;;;;;;72.72;38.55;;;;;;;2.32;71.70;95244.36;1644243;83;21026;-56
2021/12/15 03:06:14;;;;;;;72.78;37.63;;;;;;;2.07;71.19;95232.61;1698856;83;21004;-56
2021/12/15 03:16:41;;;;;;;44.65;29.00;;;;;;;1.82;71.56;95238.50;1706724;83;21004;-56
2021/12/15 03:19:09;;;;;;;50.28;30.05;;;;;;;1.65;71.57;95240.53;1712271;83;21055;-57
2021/12/15 03:21:40;;;;;;;49.98;27.07;;;;;;;1.56;71.90;95242.02;1699818;83;21045;-56
2021/12/15 03:24:17;;;;;;;40.00;25.05;;;;;;;1.49;72.09;95241.39;1703389;83;21132;-56
2021/12/15 03:26:52;;;;;;;43.28;26.85;;;;;;;1.41;72.09;95244.42;1691024;83;21568;-58
2021/12/15 03:35:20;;;;;;;59.50;33.92;;;;;;;1.10;72.81;95255.23;1690804;83;21101;-55
2021/12/15 03:37:38;;;;;;;75.70;37.83;;;;;;;1.07;72.82;95244.34;1695997;83;21023;-56
2021/12/15 03:40:15;;;;;;;72.82;38.60;;;;;;;1.10;72.56;95249.80;1689121;83;21026;-57
2021/12/15 03:42:54;;;;;;;50.38;29.05;;;;;;;1.06;72.60;95250.92;1689058;85;21047;-56
2021/12/15 03:45:30;;;;;;;46.98;26.93;;;;;;;1.04;72.50;95259.44;1688279;83;21010;-57
2021/12/15 03:48:00;;;;;;;39.03;24.80;;;;;;;1.10;72.67;95264.70;1672994;83;21151;-56
2021/12/15 03:50:30;;;;;;;44.23;24.65;;;;;;;1.20;72.06;95268.66;1684704;83;21548;-56
2021/12/15 03:52:58;;;;;;;50.23;28.85;;;;;;;1.24;71.86;95270.25;1691732;83;21072;-56
2021/12/15 03:55:31;;;;;;;62.33;35.38;;;;;;;1.30;71.40;95276.11;1691135;83;21441;-56
2021/12/15 03:58:06;;;;;;;52.30;29.77;;;;;;;1.30;71.24;95291.78;1702808;83;21054;-55
2021/12/15 04:00:33;;;;;;;50.58;31.33;;;;;;;1.31;70.85;95291.97;1689088;83;21175;-56
2021/12/15 04:03:01;;;;;;;52.53;33.30;;;;;;;1.23;70.56;95301.21;1699627;83;21020;-56
2021/12/15 04:05:29;;;;;;;50.78;31.33;;;;;;;1.11;70.41;95309.61;1680945;84;21110;-55
2021/12/15 04:08:00;;;;;;;58.45;34.55;;;;;;;0.95;70.73;95308.30;1673059;83;21515;-59
2021/12/15 04:10:27;;;;;;;58.02;34.10;;;;;;;0.86;70.92;95313.22;1687367;84;20999;-55
2021/12/15 04:12:56;;;;;;;54.53;34.20;;;;;;;0.81;71.25;95321.09;1682158;84;21150;-55
2021/12/15 04:17:53;;;;;;;48.23;29.77;;;;;;;0.61;70.99;95322.42;1711264;83;21075;-57
2021/12/15 04:20:22;;;;;;;52.73;34.65;;;;;;;0.52;71.08;95321.95;1677349;82;21032;-57
2021/12/15 04:22:49;;;;;;;59.10;37.65;;;;;;;0.41;71.01;95329.15;1687196;83;21039;-56
2021/12/15 04:25:20;;;;;;;63.17;36.68;;;;;;;0.38;71.13;95321.01;1705629;83;21116;-55
2021/12/15 04:28:10;;;;;;;56.33;35.50;;;;;;;0.33;70.65;95330.23;1693983;83;21120;-56
2021/12/15 04:30:44;;;;;;;50.50;32.08;;;;;;;0.17;70.89;95332.33;1690312;83;20981;-57
2021/12/15 04:33:14;;;;;;;;;;;;;;;0.02;70.49;95330.58;1704390;83;21060;-56
2021/12/15 04:35:42;;;;;;;49.05;31.23;;;;;;;-0.14;70.80;95329.76;1712203;83;20137;-56
2021/12/15 04:38:11;;;;;;;57.13;34.45;;;;;;;-0.21;71.17;95332.38;1690408;83;21525;-56
2021/12/15 04:40:40;;;;;;;53.45;34.35;;;;;;;-0.25;71.43;95331.55;1689240;83;21018;-56
2021/12/15 04:43:08;;;;;;;51.85;33.02;;;;;;;-0.31;71.42;95337.03;1689188;85;21065;-56
2021/12/15 04:45:35;;;;;;;51.02;31.57;;;;;;;-0.37;71.59;95337.15;1688991;84;21031;-56
2021/12/15 04:48:03;;;;;;;53.20;32.15;;;;;;;-0.44;71.84;95346.51;1679618;83;21030;-58
2021/12/15 04:50:32;;;;;;;49.13;32.33;;;;;;;-0.45;72.16;95353.05;1672801;84;21123;-60
2021/12/15 04:53:03;;;;;;;77.58;48.25;;;;;;;-0.37;71.98;95345.25;1667820;84;21574;-58
2021/12/15 04:55:34;;;;;;;70.15;44.23;;;;;;;-0.42;71.85;95343.63;1659754;84;21536;-57
2021/12/15 04:58:05;;;;;;;69.15;41.83;;;;;;;-0.42;71.95;95350.98;1667685;85;21055;-56
2021/12/15 05:00:36;;;;;;;63.33;39.93;;;;;;;-0.51;71.91;95356.63;1674543;83;20991;-59
2021/12/15 05:03:06;;;;;;;65.92;35.92;;;;;;;-0.64;72.03;95353.11;1652325;85;22164;-59
2021/12/15 05:05:35;;;;;;;59.73;34.78;;;;;;;-0.74;72.20;95351.02;1660340;85;21113;-59
2021/12/15 05:08:02;;;;;;;60.63;35.13;;;;;;;-0.75;72.01;95356.22;1682282;83;21092;-56
2021/12/15 05:10:33;;;;;;;71.53;41.23;;;;;;;-0.78;71.52;95356.94;1673555;83;21560;-56
2021/12/15 05:13:02;;;;;;;69.82;38.33;;;;;;;-0.83;71.25;95353.97;1673589;84;21056;-57
2021/12/15 05:15:29;;;;;;;78.47;42.65;;;;;;;-0.84;71.49;95361.06;1698090;83;21211;-58
2021/12/15 05:18:00;;;;;;;77.62;41.85;;;;;;;-0.86;71.43;95364.70;1661251;83;21078;-57
2021/12/15 05:20:30;;;;;;;58.55;34.73;;;;;;;-0.89;71.46;95374.87;1685751;83;21057;-56
2021/12/15 05:22:58;;;;;;;60.63;35.65;;;;;;;-0.97;71.66;95378.59;1680625;83;21553;-58
2021/12/15 05:25:25;;;;;;;68.15;38.00;;;;;;;-1.09;71.72;95370.09;1668490;83;21081;-60
2021/12/15 05:27:53;;;;;;;71.53;38.17;;;;;;;-1.18;72.13;95374.16;1681944;83;21184;-56
2021/12/15 05:30:21;;;;;;;78.60;45.78;;;;;;;-1.20;72.50;95378.55;1697540;83;21446;-64
2021/12/15 05:32:49;;;;;;;78.30;41.68;;;;;;;-1.18;72.77;95388.42;1681157;83;21077;-60
2021/12/15 05:35:23;;;;;;;76.22;42.55;;;;;;;-1.10;72.76;95392.80;1692004;84;21039;-59
2021/12/15 05:37:46;;;;;;;96.17;51.85;;;;;;;-1.10;72.58;95384.70;1670240;84;20991;-63
2021/12/15 05:40:13;;;;;;;94.77;51.15;;;;;;;-1.14;72.45;95389.27;1689563;83;21404;-60
2021/12/15 05:42:43;;;;;;;105.07;55.65;;;;;;;-1.15;72.41;95397.73;1689489;85;20967;-60
2021/12/15 05:45:11;;;;;;;106.37;55.12;;;;;;;-1.19;72.27;95401.70;1645383;85;21011;-58
2021/12/15 05:47:38;;;;;;;113.75;61.08;;;;;;;-1.15;71.79;95407.18;1676729;83;21579;-58
2021/12/15 05:50:11;;;;;;;110.37;52.27;;;;;;;-1.23;71.51;95410.86;1652202;84;20984;-58
2021/12/15 05:52:38;;;;;;;;;;;;;;;-1.31;71.38;95416.69;1671262;84;21153;-59
2021/12/15 05:55:07;;;;;;;130.70;62.20;;;;;;;-1.43;71.44;95421.45;1675665;85;20271;-58
2021/12/15 05:57:38;;;;;;;112.68;61.35;;;;;;;-1.54;71.87;95413.72;1670673;84;20987;-59
2021/12/15 06:00:13;;;;;;;118.37;60.83;;;;;;;-1.52;72.35;95415.49;1668080;84;20998;-58
2021/12/15 06:02:42;;;;;;;105.97;55.52;;;;;;;-1.40;73.04;95411.29;1671215;84;21146;-55
2021/12/15 06:05:10;;;;;;;98.72;55.05;;;;;;;-1.16;72.98;95419.87;1676564;84;21856;-57
2021/12/15 06:07:39;;;;;;;125.62;66.75;;;;;;;-1.04;72.25;95419.73;1662066;83;21081;-58
2021/12/15 06:10:08;;;;;;;110.00;60.63;;;;;;;-1.07;71.46;95420.45;1647538;85;21019;-59
2021/12/15 06:12:36;;;;;;;98.17;59.15;;;;;;;-1.18;71.35;95420.05;1674078;84;21066;-59
2021/12/15 06:15:06;;;;;;;109.00;61.42;;;;;;;-1.31;71.38;95415.34;1664120;84;21039;-59
2021/12/15 06:17:35;;;;;;;94.52;53.83;;;;;;;-1.42;71.59;95416.27;1682713;84;21010;-61
2021/12/15 06:20:03;;;;;;;108.85;59.42;;;;;;;-1.44;71.66;95425.28;1671713;83;21065;-58
2021/12/15 06:22:36;;;;;;;148.53;69.55;;;;;;;-1.49;71.70;95428.27;1667016;83;21033;-59
2021/12/15 06:25:04;;;;;;;133.37;69.05;;;;;;;-1.49;71.84;95427.69;1685476;83;21522;-60
2021/12/15 06:27:35;;;;;;;141.20;73.75;;;;;;;-1.47;71.69;95431.39;1685615;83;21074;-61
2021/12/15 06:30:00;;;;;;;158.93;82.82;;;;;;;-1.50;72.18;95434.22;1661551;84;21195;-60
2021/12/15 06:32:27;;;;;;;160.40;87.53;;;;;;;-1.42;72.35;95440.55;1683148;84;21491;-60
2021/12/15 06:34:55;;;;;;;174.57;87.42;;;;;;;-1.38;72.43;95437.34;1686538;83;21692;-60
2021/12/15 06:37:22;;;;;;;130.50;72.58;;;;;;;-1.42;72.54;95439.98;1685499;84;21119;-61
2021/12/15 06:39:49;;;;;;;140.77;71.07;;;;;;;-1.44;72.79;95438.77;1689828;83;21107;-59
2021/12/15 06:42:16;;;;;;;149.80;74.97;;;;;;;-1.39;73.29;95441.97;1674368;84;21081;-59
2021/12/15 06:44:49;;;;;;;91.40;49.13;;;;;;;-1.41;73.35;95440.20;1689157;83;21085;-60
2021/12/15 06:58:21;;;;;;;73.85;37.70;;;;;;;-1.20;74.46;95464.92;1670356;83;21244;-66
2021/12/15 07:00:51;;;;;;;85.20;43.05;;;;;;;-1.28;74.33;95472.67;1597775;87;21171;-62
2021/12/15 07:03:18;;;;;;;77.08;37.60;;;;;;;-1.36;74.52;95471.53;1643477;85;21102;-61
2021/12/15 07:05:46;;;;;;;60.52;33.33;;;;;;;-1.38;74.64;95472.42;1673041;82;22285;-60
2021/12/15 07:08:13;;;;;;;57.15;31.40;;;;;;;-1.32;74.82;95471.80;1680487;82;21131;-65
2021/12/15 07:10:46;;;;;;;58.95;31.62;;;;;;;-1.24;74.61;95475.42;1681331;83;21542;-66
2021/12/15 07:13:25;;;;;;;66.85;36.03;;;;;;;-1.27;74.18;95473.44;1688592;82;21014;-69
2021/12/15 07:16:04;;;;;;;58.98;34.00;;;;;;;-1.34;74.28;95481.39;1639936;83;21033;-66
2021/12/15 07:18:43;;;;;;;75.40;41.45;;;;;;;-1.35;74.16;95482.53;1661174;83;21117;-69
2021/12/15 07:21:12;;;;;;;54.40;33.70;;;;;;;-1.34;74.35;95490.84;1683867;81;22564;-67
2021/12/15 07:23:39;;;;;;;63.05;36.42;;;;;;;-1.29;74.20;95491.32;1686686;82;21074;-70
2021/12/15 07:26:06;;;;;;;77.62;44.00;;;;;;;-1.26;74.31;95484.44;1650921;83;21061;-76
2021/12/15 07:28:34;;;;;;;70.75;41.90;;;;;;;-1.27;74.15;95486.38;1663927;83;21022;-74
2021/12/15 07:31:04;;;;;;;52.90;33.98;;;;;;;-1.27;74.39;95485.03;1658465;83;21099;-69
2021/12/15 07:33:32;;;;;;;51.33;33.05;;;;;;;-1.17;74.60;95485.80;1671183;83;21140;-74
2021/12/15 07:35:59;;;;;;;66.67;42.43;;;;;;;-1.02;74.32;95487.66;1667727;83;21083;-72
2021/12/15 07:38:29;;;;;;;79.10;50.23;;;;;;;-0.92;73.93;95486.30;1653106;82;22099;-74
2021/12/15 07:40:57;;;;;;;85.83;50.17;;;;;;;-0.87;73.69;95487.36;1672759;82;21079;-72
2021/12/15 07:43:24;;;;;;;78.95;44.88;;;;;;;-0.81;73.44;95486.72;1656548;83;21031;-74
2021/12/15 07:46:00;;;;;;;96.97;55.38;;;;;;;-0.79;73.06;95485.02;1660896;83;21937;-71
2021/12/15 07:48:39;;;;;;;85.85;48.10;;;;;;;-0.74;73.12;95486.07;1672195;82;21094;-63
2021/12/15 07:51:05;;;;;;;100.42;55.52;;;;;;;-0.60;73.08;95491.16;1649788;83;21157;-75
2021/12/15 07:53:32;;;;;;;85.70;48.65;;;;;;;-0.43;73.29;95485.89;1676496;83;21026;-75
2021/12/15 07:56:01;;;;;;;82.78;45.10;;;;;;;-0.21;73.01;95486.46;1681649;83;21046;-74
2021/12/15 07:58:30;;;;;;;82.65;48.20;;;;;;;-0.06;72.55;95480.16;1665096;83;21148;-75
2021/12/15 08:01:01;;;;;;;83.75;53.00;;;;;;;0.05;72.37;95484.00;1681811;82;21155;-67
2021/12/15 08:03:28;;;;;;;56.73;37.08;;;;;;;0.23;71.72;95487.00;1669770;82;22385;-73
2021/12/15 08:05:55;;;;;;;55.20;35.13;;;;;;;0.35;70.90;95483.52;1688289;81;21094;-67
2021/12/15 08:08:24;;;;;;;48.17;29.92;;;;;;;0.49;70.49;95481.02;1688376;82;21002;-69
2021/12/15 08:10:56;;;;;;;54.77;32.15;;;;;;;0.70;69.88;95484.02;1666356;83;21850;-74
2021/12/15 08:13:28;;;;;;;41.65;27.65;;;;;;;0.90;69.57;95485.44;1648396;83;21039;-74
2021/12/15 08:15:55;;;;;;;46.20;29.23;;;;;;;0.98;68.87;95485.73;1683176;82;21027;-75
2021/12/15 08:18:23;;;;;;;52.13;33.78;;;;;;;1.03;68.40;95492.20;1675649;82;21036;-78
2021/12/15 08:20:51;;;;;;;90.77;51.85;;;;;;;1.10;68.08;95490.92;1676013;82;21008;-67
2021/12/15 08:23:18;;;;;;;94.22;54.58;;;;;;;1.24;67.62;95487.03;1655535;83;21054;-64
2021/12/15 08:25:47;;;;;;;91.55;56.05;;;;;;;1.30;67.11;95481.48;1680679;82;21154;-70
2021/12/15 08:28:14;;;;;;;85.92;50.92;;;;;;;1.28;66.97;95485.14;1650666;84;21021;-76
2021/12/15 08:30:43;;;;;;;90.83;52.67;;;;;;;1.26;66.65;95480.66;1670447;82;21112;-69
2021/12/15 08:33:14;;;;;;;81.45;53.48;;;;;;;1.13;66.59;95483.41;1686827;83;21069;-62
2021/12/15 08:35:47;;;;;;;81.82;51.70;;;;;;;1.01;66.85;95486.93;1705003;82;21059;-64
2021/12/15 08:38:15;;;;;;;83.75;50.28;;;;;;;0.94;67.15;95483.55;1687337;82;21048;-67
2021/12/15 08:40:43;;;;;;;91.25;56.33;;;;;;;0.97;67.39;95481.46;1673003;83;21069;-67
2021/12/15 08:43:13;;;;;;;81.95;51.42;;;;;;;0.95;67.52;95476.98;1681460;82;21049;-64
2021/12/15 08:45:44;;;;;;;96.78;62.13;;;;;;;1.00;67.65;95482.08;1665223;82;21049;-65
2021/12/15 08:48:12;;;;;;;83.97;53.05;;;;;;;1.04;67.93;95477.50;1675912;83;21159;-64
2021/12/15 08:50:41;;;;;;;61.73;38.25;;;;;;;1.21;67.79;95484.27;1690273;82;21063;-71
2021/12/15 08:53:10;;;;;;;52.17;35.58;;;;;;;1.38;67.43;95476.36;1681438;82;21814;-68
2021/12/15 08:55:41;;;;;;;56.40;36.40;;;;;;;1.64;67.02;95474.08;1679528;82;21109;-70
2021/12/15 08:58:11;;;;;;;67.95;45.43;;;;;;;1.94;66.36;95480.39;1673057;82;21037;-69
2021/12/15 09:00:40;;;;;;;57.13;37.25;;;;;;;2.13;66.11;95473.38;1667229;83;22619;-65
2021/12/15 09:03:11;;;;;;;56.55;36.30;;;;;;;2.24;65.36;95475.62;1682458;83;21687;-78
2021/12/15 09:05:39;;;;;;;63.15;40.45;;;;;;;2.24;65.09;95466.68;1685281;82;22358;-69
2021/12/15 09:08:06;;;;;;;48.78;31.02;;;;;;;2.27;65.12;95465.92;1677239;82;21043;-61
2021/12/15 09:10:35;;;;;;;39.88;28.02;;;;;;;2.34;64.60;95460.56;1664237;82;21076;-65
2021/12/15 09:13:07;;;;;;;41.95;29.30;;;;;;;2.39;64.70;95465.07;1678743;83;22527;-75
2021/12/15 09:15:35;;;;;;;44.30;29.75;;;;;;;2.55;64.49;95454.71;1670020;83;21520;-74
2021/12/15 09:18:03;;;;;;;43.40;28.75;;;;;;;2.67;63.96;95453.02;1682236;83;21066;-74
2021/12/15 09:20:31;;;;;;;49.55;33.63;;;;;;;2.77;63.71;95449.59;1677851;83;21069;-72
2021/12/15 09:22:59;;;;;;;54.65;33.65;;;;;;;2.81;63.57;95448.23;1672599;82;22312;-73
2021/12/15 09:25:28;;;;;;;59.15;37.20;;;;;;;2.75;63.65;95454.62;1681221;82;21103;-75
2021/12/15 09:27:58;;;;;;;65.35;42.55;;;;;;;2.64;63.50;95448.91;1673794;83;21026;-73
2021/12/15 09:30:29;;;;;;;46.48;31.30;;;;;;;2.49;63.93;95443.98;1687224;83;21634;-75
2021/12/15 09:33:00;;;;;;;45.60;31.37;;;;;;;2.48;64.24;95445.14;1657699;83;21014;-76
2021/12/15 09:35:31;;;;;;;43.48;29.60;;;;;;;2.54;63.93;95444.21;1670831;82;27100;-73
2021/12/15 09:38:00;;;;;;;59.75;40.75;;;;;;;2.57;63.94;95439.38;1682377;83;21374;-76
2021/12/15 09:40:28;;;;;;;93.12;58.92;;;;;;;2.58;64.17;95435.50;1657952;82;21055;-73
2021/12/15 09:42:55;;;;;;;89.85;57.55;;;;;;;2.73;64.39;95443.94;1673803;82;22297;-70
2021/12/15 09:45:51;;;;;;;92.72;58.25;;;;;;;2.95;64.34;95441.52;1653385;83;21034;-74
2021/12/15 10:02:24;;;;;;;95.07;61.98;;;;;;;3.61;62.91;95439.81;1663022;83;21124;-65
2021/12/15 10:04:47;;;;;;;127.02;74.80;;;;;;;3.63;63.12;95448.36;1670785;83;21932;-76
2021/12/15 10:18:17;;;;;;;83.72;49.85;;;;;;;3.73;63.60;95442.14;1663515;83;21137;-72
2021/12/15 10:20:40;;;;;;;82.90;51.37;;;;;;;3.65;63.67;95440.59;1676550;82;21054;-63
2021/12/15 10:23:12;;;;;;;94.72;57.60;;;;;;;3.58;64.07;95429.70;1671914;82;21005;-67
2021/12/15 10:25:49;;;;;;;115.13;70.07;;;;;;;3.68;64.08;95431.65;1689370;82;21063;-71
2021/12/15 10:28:24;;;;;;;105.80;63.45;;;;;;;3.78;63.64;95429.54;1696995;81;21015;-64
2021/12/15 10:31:00;;;;;;;106.92;65.85;;;;;;;3.67;63.67;95433.41;1687184;82;21868;-62
2021/12/15 10:33:43;;;;;;;96.30;59.50;;;;;;;3.58;64.00;95425.63;1672497;82;21592;-62
2021/12/15 10:36:13;;;;;;;82.08;47.67;;;;;;;3.60;64.26;95430.09;1673348;83;21133;-66
2021/12/15 10:38:54;;;;;;;80.17;49.53;;;;;;;3.64;64.19;95426.79;1653474;83;21541;-67
2021/12/15 10:41:33;;;;;;;78.47;48.52;;;;;;;3.68;64.20;95422.13;1677039;81;21104;-67
2021/12/15 10:44:13;;;;;;;75.35;46.28;;;;;;;3.66;64.04;95411.45;1665772;83;21154;-69
2021/12/15 10:46:55;;;;;;;86.08;51.20;;;;;;;3.66;64.47;95419.02;1628806;85;20986;-71
2021/12/15 10:49:30;;;;;;;84.83;52.20;;;;;;;3.78;64.23;95409.13;1626698;83;21324;-69
2021/12/15 10:52:08;;;;;;;69.85;45.23;;;;;;;3.90;64.30;95408.73;1688124;82;21034;-61
2021/12/15 10:54:49;;;;;;;81.35;51.00;;;;;;;4.03;63.81;95407.19;1669701;83;21150;-71
2021/12/15 10:57:37;;;;;;;87.45;54.00;;;;;;;3.98;63.76;95419.83;1616137;85;21210;-63
2021/12/15 11:00:08;;;;;;;93.72;59.42;;;;;;;4.00;64.02;95416.14;1704655;81;21045;-66
2021/12/15 11:02:35;;;;;;;89.90;55.63;;;;;;;4.16;63.85;95418.45;1681562;82;21056;-71
2021/12/15 11:05:15;;;;;;;88.07;55.30;;;;;;;4.21;63.29;95413.41;1689079;82;21069;-65
2021/12/15 11:07:55;;;;;;;110.68;63.30;;;;;;;4.21;63.21;95413.41;1676553;82;21609;-66
2021/12/15 11:10:30;;;;;;;135.65;75.70;;;;;;;4.24;63.23;95404.45;1683632;83;21012;-63
2021/12/15 11:13:05;;;;;;;130.27;77.50;;;;;;;4.28;63.59;95411.27;1685946;83;21103;-65
2021/12/15 11:15:40;;;;;;;122.82;74.47;;;;;;;4.37;63.63;95416.51;1682460;83;21039;-64
2021/12/15 11:18:20;;;;;;;123.42;74.72;;;;;;;4.44;63.54;95404.83;1676575;83;21132;-66
2021/12/15 11:21:03;;;;;;;126.97;78.17;;;;;;;4.56;63.38;95412.57;1669331;83;21362;-69
2021/12/15 11:23:35;;;;;;;;;;;;;;;4.74;62.99;95408.65;1680580;84;22285;-67
2021/12/15 11:26:11;;;;;;;116.80;74.10;;;;;;;4.88;62.49;95407.25;1705495;81;20183;-64
2021/12/15 11:28:41;;;;;;;112.45;76.25;;;;;;;4.86;62.71;95405.52;1706821;81;21794;-67
2021/12/15 11:31:19;;;;;;;110.05;72.67;;;;;;;4.87;62.42;95403.55;1713151;82;22323;-67
2021/12/15 11:33:55;;;;;;;103.47;69.20;;;;;;;4.84;62.45;95402.41;1656653;85;21051;-64
2021/12/15 11:36:37;;;;;;;122.00;77.32;;;;;;;4.81;62.34;95402.41;1666013;83;21246;-59
2021/12/15 11:39:16;;;;;;;105.58;71.22;;;;;;;4.76;62.57;95406.91;1680285;83;21008;-63
2021/12/15 11:41:47;;;;;;;84.40;57.95;;;;;;;4.75;62.47;95397.94;1699554;82;21148;-59
2021/12/15 11:44:21;;;;;;;104.95;68.15;;;;;;;4.68;62.51;95397.97;1670153;83;21054;-65
2021/12/15 11:46:58;;;;;;;95.42;60.55;;;;;;;4.55;62.58;95397.39;1704373;83;21100;-66
2021/12/15 11:49:29;;;;;;;88.67;59.63;;;;;;;4.45;63.29;95398.97;1676273;83;21138;-62
2021/12/15 11:52:05;;;;;;;102.78;62.98;;;;;;;4.35;63.48;95396.27;1668120;84;21054;-67
2021/12/15 11:54:44;;;;;;;113.83;70.87;;;;;;;4.26;63.83;95404.08;1690852;82;21062;-61
2021/12/15 11:57:26;;;;;;;110.08;68.15;;;;;;;4.15;63.96;95398.64;1686776;83;21824;-65
2021/12/15 12:00:12;;;;;;;115.77;72.37;;;;;;;4.05;64.36;95392.59;1686142;83;21114;-63
2021/12/15 12:02:42;;;;;;;132.52;79.37;;;;;;;3.95;64.74;95397.48;1690801;83;21150;-61
2021/12/15 12:05:23;;;;;;;132.80;82.35;;;;;;;3.84;65.07;95415.73;1669910;84;21082;-63
2021/12/15 12:08:01;;;;;;;122.50;75.65;;;;;;;3.84;65.62;95406.21;1708534;82;21519;-62
2021/12/15 12:10:48;;;;;;;147.13;91.22;;;;;;;3.91;65.75;95414.38;1687734;83;21095;-62
2021/12/15 12:13:26;;;;;;;141.80;89.30;;;;;;;3.87;65.75;95406.03;1668938;83;21082;-61
2021/12/15 12:15:59;;;;;;;141.10;90.70;;;;;;;3.82;66.29;95412.63;1694561;82;21755;-64
2021/12/15 12:18:30;;;;;;;141.47;95.57;;;;;;;3.86;66.70;95407.20;1674059;82;21542;-63
2021/12/15 12:21:05;;;;;;;145.72;92.35;;;;;;;3.91;66.75;95398.64;1689160;83;21058;-61
2021/12/15 12:23:35;;;;;;;142.43;88.82;;;;;;;3.97;66.93;95395.14;1683495;82;21081;-67
2021/12/15 12:26:10;;;;;;;137.43;89.00;;;;;;;4.12;66.64;95398.06;1689586;82;21502;-67
2021/12/15 12:28:40;;;;;;;140.03;91.53;;;;;;;4.39;66.88;95397.83;1707021;82;21155;-66
2021/12/15 12:31:11;;;;;;;127.53;82.50;;;;;;;4.39;66.88;95397.83;1670285;82;21761;-59
2021/12/15 12:33:38;;;;;;;126.85;85.65;;;;;;;4.43;66.24;95397.83;1673488;82;21122;-62
2021/12/15 12:36:21;;;;;;;143.17;91.85;;;;;;;4.31;66.32;95395.50;1702808;82;20995;-62
2021/12/15 12:38:55;;;;;;;146.70;91.90;;;;;;;4.18;66.48;95392.41;1678485;82;21046;-63
2021/12/15 12:41:28;;;;;;;156.95;97.40;;;;;;;4.16;67.04;95394.75;1679056;82;21168;-64
2021/12/15 12:43:59;;;;;;;151.63;96.70;;;;;;;4.21;67.26;95390.27;1700074;83;21560;-59
2021/12/15 12:46:47;;;;;;;143.95;90.83;;;;;;;4.29;67.45;95389.09;1711638;82;21151;-61
2021/12/15 13:00:57;;;;;;;139.32;86.42;;;;;;;4.20;67.51;95389.30;1676377;83;20999;-64
2021/12/15 13:03:31;;;;;;;130.50;85.50;;;;;;;4.01;68.00;95385.59;1694682;82;21054;-62